Terminal Aerodrome Forecast
Issued by NWS Jackson, KY

Home | Current Version | Previous Version | Text Only | Print | Product List | Glossary On
Versions: 1 2 3 4 5 6 7 8 9 10 11 12
000
FTUS43 KJKL 252335
TAFJKL
TAF
KJKL 252335Z 2600/2624 VRB03KT P6SM BKN150
     FM260900 VRB03KT P6SM VCSH BKN150
     FM261100 VRB03KT P6SM BKN150=

USA.gov is the U.S. government's official web portal to all federal, state and local government web resources and services.